Time;durP1;ratioP1;P1;durP2;ratioP2;P2;SDS_P1;SDS_P2;PMS_P1;PMS_P2;Temp;Humidity;BMP_temperature;BMP_pressure;BME280_temperature;BME280_humidity;BME280_pressure;Samples;Min_cycle;Max_cycle;Signal;HPM_P1;HPM_P2
2023/02/11 00:00:40;;;;;;;;;40.50;34.50;14.00;33.00;;;;;;110395;1248;49335;-60
2023/02/11 00:03:23;;;;;;;;;45.67;37.67;13.90;33.40;;;;;;110267;1249;45368;-60
2023/02/11 00:06:00;;;;;;;;;43.50;36.00;13.90;33.40;;;;;;110385;1248;55565;-60
2023/02/11 00:08:27;;;;;;;;;42.00;36.00;13.90;33.40;;;;;;110405;1249;55396;-61
2023/02/11 00:10:55;;;;;;;;;43.67;35.00;14.00;33.50;;;;;;110483;1248;50358;-61
2023/02/11 00:13:23;;;;;;;;;42.00;35.33;13.90;33.40;;;;;;110508;1248;49552;-60
2023/02/11 00:15:50;;;;;;;;;36.50;33.50;13.90;33.40;;;;;;110331;1252;46520;-60
2023/02/11 00:18:17;;;;;;;;;44.00;34.00;13.90;33.40;;;;;;110447;1248;55007;-59
2023/02/11 00:20:44;;;;;;;;;35.50;32.00;13.90;33.40;;;;;;110402;1248;54359;-59
2023/02/11 00:23:11;;;;;;;;;40.50;34.50;13.90;33.50;;;;;;110374;1252;49685;-59
2023/02/11 00:25:43;;;;;;;;;47.50;38.50;13.90;33.70;;;;;;110368;1248;49044;-60
2023/02/11 00:28:11;;;;;;;;;38.00;34.00;13.90;33.50;;;;;;110354;1252;45265;-61
2023/02/11 00:30:38;;;;;;;;;39.00;34.00;13.90;33.40;;;;;;110469;1248;56243;-60
2023/02/11 00:33:05;;;;;;;;;41.50;35.00;13.90;33.40;;;;;;110451;1253;53527;-61
2023/02/11 00:35:32;;;;;;;;;40.00;35.00;13.90;33.30;;;;;;110537;1251;49489;-61
2023/02/11 00:37:59;;;;;;;;;35.33;32.33;13.90;33.50;;;;;;110457;1252;49821;-60
2023/02/11 00:40:26;;;;;;;;;37.50;33.00;13.90;33.50;;;;;;110413;1247;45340;-61
2023/02/11 00:42:53;;;;;;;;;41.50;35.50;13.90;33.50;;;;;;110408;1248;55910;-61
2023/02/11 00:45:20;;;;;;;;;45.00;36.00;13.90;33.50;;;;;;110422;1248;54349;-58
2023/02/11 00:47:47;;;;;;;;;36.00;31.00;13.90;33.50;;;;;;110412;1248;49788;-59
2023/02/11 00:50:14;;;;;;;;;35.67;31.00;13.80;33.60;;;;;;110434;1248;49952;-61
2023/02/11 00:52:41;;;;;;;;;38.67;34.67;13.80;33.50;;;;;;110381;1252;46354;-61
2023/02/11 00:55:08;;;;;;;;;45.00;36.00;13.80;33.50;;;;;;110407;1248;55400;-60
2023/02/11 00:57:35;;;;;;;;;47.00;36.00;13.80;33.70;;;;;;110361;1248;53626;-61
2023/02/11 01:00:04;;;;;;;;;38.50;33.50;13.80;33.50;;;;;;110342;1249;48926;-61
2023/02/11 01:02:31;;;;;;;;;42.50;37.00;13.80;33.50;;;;;;110278;1253;49604;-61
2023/02/11 01:04:59;;;;;;;;;40.00;32.25;13.80;33.70;;;;;;110413;1248;46026;-59
2023/02/11 01:07:27;;;;;;;;;40.00;33.00;13.80;33.50;;;;;;110399;1248;55143;-59
2023/02/11 01:09:53;;;;;;;;;37.50;32.50;13.80;33.40;;;;;;110377;1249;54002;-59
2023/02/11 01:12:21;;;;;;;;;35.00;32.00;13.80;33.60;;;;;;110273;1249;50413;-59
2023/02/11 01:14:48;;;;;;;;;43.00;35.00;13.80;33.50;;;;;;110485;1247;50029;-59
2023/02/11 01:17:15;;;;;;;;;40.00;33.00;13.80;33.50;;;;;;110489;1248;46440;-60
2023/02/11 01:19:42;;;;;;;;;38.00;33.00;13.80;33.50;;;;;;110464;1252;55604;-62
2023/02/11 01:22:09;;;;;;;;;37.75;31.25;13.70;33.50;;;;;;110356;1249;54467;-59
2023/02/11 01:24:36;;;;;;;;;35.50;32.00;13.70;33.40;;;;;;110398;1251;49313;-63
2023/02/11 01:27:03;;;;;;;;;35.50;33.00;13.70;33.60;;;;;;110479;1247;49202;-61
2023/02/11 01:29:30;;;;;;;;;42.00;36.00;13.70;33.40;;;;;;110409;1248;46438;-60
2023/02/11 01:31:56;;;;;;;;;37.00;33.00;13.70;33.40;;;;;;110455;1251;55781;-62
2023/02/11 01:34:23;;;;;;;;;33.75;31.00;13.70;33.40;;;;;;110497;1252;53980;-59
2023/02/11 01:36:50;;;;;;;;;34.00;32.00;13.70;33.40;;;;;;110476;1249;50418;-61
2023/02/11 01:39:18;;;;;;;;;35.25;31.25;13.70;33.30;;;;;;110281;1254;50205;-60
2023/02/11 01:41:45;;;;;;;;;39.50;33.00;13.70;33.40;;;;;;110434;1250;45673;-60
2023/02/11 01:44:31;;;;;;;;;38.00;31.00;13.70;33.40;;;;;;110464;1248;55625;-61
2023/02/11 01:46:59;;;;;;;;;39.00;32.50;13.70;33.50;;;;;;110354;1248;54019;-61
2023/02/11 01:49:30;;;;;;;;;35.67;31.00;13.70;34.00;;;;;;110412;1248;49210;-60
2023/02/11 01:52:00;;;;;;;;;38.67;32.33;13.70;33.40;;;;;;110432;1249;49502;-60
2023/02/11 01:57:22;;;;;;;;;38.50;32.00;13.70;33.40;;;;;;110487;1248;56011;-58
2023/02/11 02:00:10;;;;;;;;;37.00;31.00;13.70;33.30;;;;;;110492;1252;54908;-59
2023/02/11 02:02:53;;;;;;;;;38.00;33.00;13.70;33.40;;;;;;110471;1252;49099;-59
2023/02/11 02:05:25;;;;;;;;;34.00;31.00;13.70;33.90;;;;;;110524;1248;49062;-61
2023/02/11 02:08:21;;;;;;;;;35.33;32.00;13.60;33.60;;;;;;110433;1248;45609;-60
2023/02/11 02:10:55;;;;;;;;;39.00;34.00;13.60;33.40;;;;;;110479;1248;55966;-60
2023/02/11 02:13:22;;;;;;;;;37.67;33.33;13.60;33.40;;;;;;110524;1248;54445;-60
2023/02/11 02:15:52;;;;;;;;;36.00;31.50;13.60;33.40;;;;;;110440;1252;48959;-60
2023/02/11 02:18:34;;;;;;;;;43.00;33.00;13.60;33.40;;;;;;110486;1252;50501;-59
2023/02/11 02:21:20;;;;;;;;;32.00;28.00;13.60;33.40;;;;;;110508;1252;45222;-60
2023/02/11 02:24:02;;;;;;;;;34.00;32.00;13.60;33.60;;;;;;110525;1252;55321;-59
2023/02/11 02:27:03;;;;;;;;;32.50;29.00;13.60;33.60;;;;;;110432;1247;54555;-60
2023/02/11 02:29:30;;;;;;;;;35.00;31.50;13.60;33.40;;;;;;110465;1248;50252;-60
2023/02/11 02:32:17;;;;;;;;;38.33;30.00;13.60;33.60;;;;;;110464;1248;50487;-61
2023/02/11 02:34:47;;;;;;;;;39.00;35.00;13.60;33.40;;;;;;110456;1252;46414;-61
2023/02/11 02:37:26;;;;;;;;;34.33;31.00;13.60;33.50;;;;;;110472;1252;56321;-60
2023/02/11 02:39:54;;;;;;;;;34.50;29.00;13.60;33.40;;;;;;110367;1249;53841;-59
2023/02/11 02:42:22;;;;;;;;;31.00;30.00;13.60;33.40;;;;;;110191;1247;49546;-60
2023/02/11 02:44:51;;;;;;;;;34.00;30.33;13.60;33.40;;;;;;110449;1249;48953;-60
2023/02/11 02:47:18;;;;;;;;;34.00;29.00;13.60;33.40;;;;;;110478;1252;45113;-59
2023/02/11 02:49:45;;;;;;;;;28.67;25.33;13.60;33.70;;;;;;110429;1252;56105;-59
2023/02/11 02:52:34;;;;;;;;;36.50;30.50;13.60;33.40;;;;;;110446;1252;54898;-60
2023/02/11 02:55:23;;;;;;;;;32.00;29.50;13.60;33.50;;;;;;110353;1249;49160;-60
2023/02/11 02:57:53;;;;;;;;;30.00;27.50;13.60;33.40;;;;;;110360;1252;49650;-60
2023/02/11 03:00:43;;;;;;;;;35.00;29.75;13.60;33.50;;;;;;110434;1248;46166;-61
2023/02/11 03:03:36;;;;;;;;;40.00;33.50;13.50;33.40;;;;;;110479;1247;55593;-60
2023/02/11 03:06:37;;;;;;;;;34.25;30.50;13.50;33.40;;;;;;110400;1252;53330;-60
2023/02/11 03:09:15;;;;;;;;;31.00;28.33;13.50;33.40;;;;;;110293;1250;49702;-59
2023/02/11 03:11:42;;;;;;;;;36.00;28.00;13.60;33.20;;;;;;110409;1248;49029;-59
2023/02/11 03:14:11;;;;;;;;;29.00;28.00;13.60;33.50;;;;;;110472;1248;45713;-60
2023/02/11 03:16:38;;;;;;;;;36.00;29.67;13.60;33.60;;;;;;110367;1253;55396;-60
2023/02/11 03:19:11;;;;;;;;;35.33;31.67;13.60;33.60;;;;;;110439;1248;54584;-58
2023/02/11 03:21:40;;;;;;;;;34.50;31.00;13.60;33.40;;;;;;110424;1252;50346;-61
2023/02/11 03:24:11;;;;;;;;;32.67;28.33;13.60;33.40;;;;;;110436;1252;49655;-61
2023/02/11 03:26:56;;;;;;;;;36.00;30.00;13.50;33.30;;;;;;110280;1249;45849;-60
2023/02/11 03:29:53;;;;;;;;;32.00;29.00;13.50;33.30;;;;;;110467;1252;55796;-60
2023/02/11 03:32:26;;;;;;;;;31.00;28.50;13.50;33.20;;;;;;110321;1252;54472;-60
2023/02/11 03:35:02;;;;;;;;;35.75;31.75;13.50;33.30;;;;;;110489;1247;50525;-64
2023/02/11 03:37:44;;;;;;;;;30.33;28.67;13.50;33.30;;;;;;110438;1249;50939;-59
2023/02/11 03:40:32;;;;;;;;;32.33;26.67;13.60;33.40;;;;;;110386;1252;46294;-60
2023/02/11 03:43:03;;;;;;;;;30.00;28.00;13.60;33.30;;;;;;110258;1249;56701;-59
2023/02/11 03:45:30;;;;;;;;;34.50;29.00;13.50;33.20;;;;;;110423;1248;53452;-60
2023/02/11 03:48:05;;;;;;;;;33.00;27.50;13.60;33.20;;;;;;110196;1252;49473;-60
2023/02/11 03:50:34;;;;;;;;;36.50;29.00;13.60;33.50;;;;;;109916;1252;638634;-61
2023/02/11 03:53:02;;;;;;;;;30.33;26.00;13.50;33.20;;;;;;110263;1253;45604;-61
2023/02/11 03:55:32;;;;;;;;;34.00;32.00;13.50;33.30;;;;;;110393;1248;55535;-59
2023/02/11 03:57:59;;;;;;;;;36.67;29.00;13.50;33.50;;;;;;110367;1247;54341;-59
2023/02/11 04:00:31;;;;;;;;;35.00;30.00;13.50;33.20;;;;;;110198;1252;49987;-60
2023/02/11 04:02:58;;;;;;;;;32.00;27.00;13.50;33.50;;;;;;110408;1252;50096;-59
2023/02/11 04:05:25;;;;;;;;;37.00;33.00;13.50;33.30;;;;;;110463;1247;45133;-60
2023/02/11 04:07:52;;;;;;;;;30.00;27.00;13.50;33.40;;;;;;110450;1252;56475;-61
2023/02/11 04:10:19;;;;;;;;;29.50;26.00;13.50;33.30;;;;;;110473;1250;53437;-61
2023/02/11 04:12:46;;;;;;;;;28.50;26.50;13.50;33.30;;;;;;110426;1247;49284;-61
2023/02/11 04:15:13;;;;;;;;;37.67;31.67;13.40;33.30;;;;;;110431;1252;50610;-59
2023/02/11 04:17:40;;;;;;;;;33.50;31.00;13.40;33.30;;;;;;110335;1252;46557;-61
2023/02/11 04:20:08;;;;;;;;;30.00;27.33;13.50;33.30;;;;;;110310;1252;55544;-62
2023/02/11 04:22:36;;;;;;;;;34.00;31.00;13.40;33.30;;;;;;110361;1248;53976;-59
2023/02/11 04:25:05;;;;;;;;;29.00;26.50;13.40;33.50;;;;;;110404;1249;49399;-60
2023/02/11 04:27:32;;;;;;;;;36.00;29.00;13.40;33.50;;;;;;110327;1248;49661;-60
2023/02/11 04:30:00;;;;;;;;;32.67;30.00;13.40;33.50;;;;;;110361;1252;45464;-60
2023/02/11 04:32:27;;;;;;;;;35.50;29.00;13.40;33.20;;;;;;110343;1252;55833;-60
2023/02/11 04:34:54;;;;;;;;;31.33;27.33;13.40;32.80;;;;;;110406;1248;53888;-59
2023/02/11 04:37:21;;;;;;;;;31.00;26.33;13.40;33.40;;;;;;110414;1252;49264;-60
2023/02/11 04:39:48;;;;;;;;;30.00;25.00;13.40;33.20;;;;;;110377;1252;49579;-59
2023/02/11 04:42:15;;;;;;;;;31.33;28.00;13.40;33.40;;;;;;110434;1249;46569;-60
2023/02/11 04:44:42;;;;;;;;;32.00;26.00;13.40;33.20;;;;;;110425;1249;55550;-60
2023/02/11 04:47:11;;;;;;;;;30.50;28.50;13.40;33.20;;;;;;110399;1247;54062;-61
2023/02/11 04:49:38;;;;;;;;;30.50;28.25;13.30;33.40;;;;;;110440;1249;50365;-60
2023/02/11 04:52:05;;;;;;;;;28.00;25.00;13.30;33.20;;;;;;110386;1252;49721;-61
2023/02/11 04:54:32;;;;;;;;;25.00;23.50;13.30;33.20;;;;;;110446;1252;45402;-60
2023/02/11 04:56:59;;;;;;;;;31.00;27.00;13.30;33.80;;;;;;110425;1252;56023;-60
2023/02/11 04:59:26;;;;;;;;;27.00;25.50;13.30;33.40;;;;;;110446;1248;53585;-60
2023/02/11 05:01:53;;;;;;;;;30.00;27.33;13.30;33.40;;;;;;110445;1248;49484;-60
2023/02/11 05:04:20;;;;;;;;;28.00;27.00;13.30;33.20;;;;;;110430;1247;49587;-62
2023/02/11 05:06:47;;;;;;;;;31.00;27.00;13.30;33.20;;;;;;110517;1248;45157;-61
2023/02/11 05:09:15;;;;;;;;;27.00;26.00;13.30;33.20;;;;;;110474;1252;56091;-60
2023/02/11 05:11:42;;;;;;;;;30.00;28.00;13.30;33.40;;;;;;110330;1249;54646;-61
2023/02/11 05:14:09;;;;;;;;;26.75;22.75;13.30;33.10;;;;;;110562;1252;50014;-61
2023/02/11 05:16:36;;;;;;;;;27.67;25.00;13.30;33.10;;;;;;110523;1247;49734;-59
2023/02/11 05:19:03;;;;;;;;;31.33;28.00;13.30;33.30;;;;;;110473;1249;46776;-61
2023/02/11 05:21:30;;;;;;;;;32.33;28.67;13.30;33.20;;;;;;110450;1252;56009;-60
2023/02/11 05:23:57;;;;;;;;;30.00;27.75;13.30;33.20;;;;;;110439;1251;55630;-60
2023/02/11 05:26:24;;;;;;;;;29.50;28.00;13.20;33.20;;;;;;110477;1252;50358;-59
2023/02/11 05:28:51;;;;;;;;;24.33;21.33;13.20;33.30;;;;;;110474;1252;49494;-59
2023/02/11 05:31:18;;;;;;;;;32.67;29.00;13.20;33.30;;;;;;110470;1247;45095;-60
2023/02/11 05:33:45;;;;;;;;;27.33;25.00;13.20;33.30;;;;;;110453;1252;55937;-59
2023/02/11 05:36:13;;;;;;;;;30.00;28.00;13.20;33.30;;;;;;110431;1248;53949;-60
2023/02/11 05:38:41;;;;;;;;;28.00;26.00;13.20;33.20;;;;;;110444;1249;49115;-60
2023/02/11 05:41:09;;;;;;;;;31.33;27.33;13.20;33.20;;;;;;110404;1248;49544;-60
2023/02/11 05:43:36;;;;;;;;;32.50;29.00;13.20;33.40;;;;;;110473;1250;46798;-61
2023/02/11 05:46:04;;;;;;;;;34.00;30.00;13.20;33.20;;;;;;110407;1248;56119;-61
2023/02/11 05:48:31;;;;;;;;;32.67;30.33;13.20;33.10;;;;;;110485;1248;54626;-60
2023/02/11 05:50:58;;;;;;;;;30.00;27.00;13.20;33.30;;;;;;110234;1248;49354;-61
2023/02/11 05:53:25;;;;;;;;;35.50;31.50;13.20;33.10;;;;;;110413;1252;49671;-58
2023/02/11 05:55:52;;;;;;;;;33.00;29.00;13.20;33.20;;;;;;110440;1252;45979;-60
2023/02/11 05:58:19;;;;;;;;;32.50;31.25;13.20;33.10;;;;;;110449;1247;55664;-60
2023/02/11 06:00:46;;;;;;;;;35.67;30.00;13.20;33.10;;;;;;110440;1252;54336;-60
2023/02/11 06:03:13;;;;;;;;;30.00;29.00;13.20;33.20;;;;;;110481;1249;49051;-61
2023/02/11 06:05:42;;;;;;;;;35.50;29.00;13.20;33.20;;;;;;110422;1252;49387;-61
2023/02/11 06:08:09;;;;;;;;;35.00;30.50;13.20;33.20;;;;;;110454;1248;46401;-60
2023/02/11 06:10:36;;;;;;;;;31.50;28.00;13.20;33.20;;;;;;110437;1252;55522;-61
2023/02/11 06:13:03;;;;;;;;;31.00;28.00;13.20;33.20;;;;;;110430;1252;54050;-60
2023/02/11 06:15:30;;;;;;;;;34.00;30.50;13.20;33.30;;;;;;110450;1252;49275;-60
2023/02/11 06:17:57;;;;;;;;;28.00;26.00;13.20;33.40;;;;;;110467;1252;49383;-60
2023/02/11 06:20:24;;;;;;;;;35.00;29.50;13.20;33.20;;;;;;110485;1252;45943;-60
2023/02/11 06:22:51;;;;;;;;;31.50;29.50;13.20;33.30;;;;;;110459;1248;55655;-60
2023/02/11 06:25:18;;;;;;;;;38.00;33.00;13.10;33.30;;;;;;110395;1250;53824;-60
2023/02/11 06:27:45;;;;;;;;;34.00;30.50;13.10;33.20;;;;;;110490;1252;49217;-60
2023/02/11 06:30:13;;;;;;;;;38.00;31.00;13.10;33.20;;;;;;110419;1252;49383;-58
2023/02/11 06:32:39;;;;;;;;;39.00;31.67;13.10;33.10;;;;;;110452;1248;46522;-60
2023/02/11 06:35:07;;;;;;;;;36.75;31.25;13.10;33.10;;;;;;110306;1253;56602;-59
2023/02/11 06:37:34;;;;;;;;;33.50;28.00;13.10;32.70;;;;;;110444;1248;53304;-62
2023/02/11 06:40:01;;;;;;;;;37.25;33.50;13.20;33.30;;;;;;110494;1248;50504;-62
2023/02/11 06:42:28;;;;;;;;;43.00;34.00;13.10;33.30;;;;;;110434;1252;50222;-62
2023/02/11 06:44:55;;;;;;;;;35.67;30.33;13.10;33.10;;;;;;110468;1252;46027;-62
2023/02/11 06:47:22;;;;;;;;;38.00;33.00;13.10;33.10;;;;;;110454;1252;56325;-62
2023/02/11 06:49:49;;;;;;;;;32.00;30.00;13.10;33.30;;;;;;110519;1252;54011;-59
2023/02/11 06:52:16;;;;;;;;;46.00;35.00;13.10;33.10;;;;;;110529;1248;48942;-61
2023/02/11 06:54:43;;;;;;;;;34.67;31.00;13.10;33.10;;;;;;110350;1252;49827;-60
2023/02/11 06:57:10;;;;;;;;;43.00;33.00;13.10;33.10;;;;;;110339;1253;44991;-59
2023/02/11 06:59:37;;;;;;;;;35.00;32.00;13.10;33.40;;;;;;110439;1248;56283;-61
2023/02/11 07:02:03;;;;;;;;;41.67;34.00;13.10;33.10;;;;;;110211;1253;53369;-61
2023/02/11 07:04:30;;;;;;;;;44.00;34.50;13.10;33.10;;;;;;110428;1248;49761;-60
2023/02/11 07:06:57;;;;;;;;;37.00;34.00;13.10;33.10;;;;;;110445;1252;48984;-61
2023/02/11 07:09:24;;;;;;;;;43.00;35.50;13.10;33.10;;;;;;110288;1253;45967;-60
2023/02/11 07:11:51;;;;;;;;;43.00;35.00;13.10;33.10;;;;;;110284;1249;56904;-59
2023/02/11 07:14:18;;;;;;;;;42.00;34.50;13.20;33.10;;;;;;110453;1252;54490;-61
2023/02/11 07:16:45;;;;;;;;;37.00;33.33;13.20;33.20;;;;;;110439;1248;49001;-62
2023/02/11 07:19:13;;;;;;;;;41.50;34.50;13.20;33.10;;;;;;110279;1249;49490;-61
2023/02/11 07:21:39;;;;;;;;;42.00;34.00;13.20;33.30;;;;;;110367;1248;45690;-59
2023/02/11 07:24:10;;;;;;;;;41.00;35.00;13.20;33.20;;;;;;110368;1253;55861;-60
2023/02/11 07:26:37;;;;;;;;;45.33;37.67;13.20;33.00;;;;;;110346;1254;53567;-61
2023/02/11 07:29:04;;;;;;;;;42.25;36.75;13.30;33.20;;;;;;110201;1251;49070;-60
2023/02/11 07:31:32;;;;;;;;;45.00;37.00;13.30;33.20;;;;;;110326;1250;48973;-62
2023/02/11 07:34:00;;;;;;;;;47.00;39.00;13.30;33.20;;;;;;110305;1252;45587;-59
2023/02/11 07:36:28;;;;;;;;;40.00;34.00;13.30;33.00;;;;;;110317;1252;56130;-60
2023/02/11 07:38:55;;;;;;;;;37.00;33.33;13.30;32.90;;;;;;110315;1250;54293;-61
2023/02/11 07:41:24;;;;;;;;;46.33;37.00;13.30;32.80;;;;;;110315;1252;50285;-60
2023/02/11 07:43:52;;;;;;;;;49.00;40.00;13.30;32.80;;;;;;110283;1249;48929;-60
2023/02/11 07:46:25;;;;;;;;;48.00;39.00;13.30;32.80;;;;;;110252;1253;45109;-59
2023/02/11 07:48:52;;;;;;;;;46.00;37.00;13.30;33.00;;;;;;110397;1252;55851;-59
2023/02/11 07:51:22;;;;;;;;;41.75;35.25;13.30;32.80;;;;;;110280;1252;53323;-61
2023/02/11 07:53:50;;;;;;;;;47.00;36.50;13.40;32.90;;;;;;110406;1248;48766;-60
2023/02/11 07:56:18;;;;;;;;;51.00;39.00;13.40;33.10;;;;;;110354;1248;49747;-60
2023/02/11 07:58:46;;;;;;;;;48.00;38.00;13.40;32.90;;;;;;110314;1253;45106;-59
2023/02/11 08:01:21;;;;;;;;;46.00;38.00;13.40;32.90;;;;;;110113;1254;56351;-59
2023/02/11 08:03:48;;;;;;;;;49.75;39.50;13.40;32.80;;;;;;110353;1248;53829;-59
2023/02/11 08:06:17;;;;;;;;;51.00;41.00;13.40;33.30;;;;;;110351;1252;49468;-59
2023/02/11 08:08:45;;;;;;;;;50.00;42.00;13.40;32.80;;;;;;110383;1252;49549;-59
2023/02/11 08:11:21;;;;;;;;;49.50;41.00;13.40;32.80;;;;;;110354;1248;45081;-60
2023/02/11 08:13:48;;;;;;;;;54.00;42.50;13.40;33.00;;;;;;110286;1252;55838;-61
2023/02/11 08:16:26;;;;;;;;;47.00;39.00;13.40;32.80;;;;;;110442;1248;54120;-60
2023/02/11 08:18:56;;;;;;;;;48.50;40.00;13.50;33.10;;;;;;110290;1249;49976;-61
2023/02/11 08:21:23;;;;;;;;;53.00;43.00;13.40;32.80;;;;;;110396;1247;50425;-61
2023/02/11 08:23:51;;;;;;;;;48.00;40.00;13.50;32.90;;;;;;110433;1251;45842;-59
2023/02/11 08:26:21;;;;;;;;;47.50;38.50;13.50;33.10;;;;;;110461;1252;55560;-60
2023/02/11 08:28:50;;;;;;;;;51.67;41.00;13.50;33.30;;;;;;110404;1251;54179;-60
2023/02/11 08:31:19;;;;;;;;;52.67;43.00;13.50;32.80;;;;;;110488;1248;49771;-59
2023/02/11 08:33:46;;;;;;;;;47.67;39.00;13.50;33.10;;;;;;110386;1250;49685;-60
2023/02/11 08:36:16;;;;;;;;;48.50;41.00;13.50;32.70;;;;;;110366;1248;45160;-61
2023/02/11 08:38:43;;;;;;;;;52.50;42.00;13.60;32.80;;;;;;110416;1252;55368;-60
2023/02/11 08:41:10;;;;;;;;;49.00;40.50;13.60;32.80;;;;;;110443;1249;53738;-63
2023/02/11 08:43:40;;;;;;;;;54.50;43.00;13.60;32.80;;;;;;110476;1247;49048;-60
2023/02/11 08:46:08;;;;;;;;;54.00;44.00;13.60;32.70;;;;;;110401;1247;49767;-65
2023/02/11 08:48:35;;;;;;;;;50.00;38.00;13.60;32.80;;;;;;110445;1248;46142;-62
2023/02/11 08:51:09;;;;;;;;;52.00;43.00;13.60;32.70;;;;;;110432;1252;56256;-61
2023/02/11 08:53:36;;;;;;;;;50.00;42.00;13.60;32.60;;;;;;110437;1252;54462;-59
2023/02/11 08:56:04;;;;;;;;;55.00;42.00;13.60;32.60;;;;;;110451;1248;50781;-63
2023/02/11 08:58:32;;;;;;;;;51.00;42.00;13.70;32.60;;;;;;110431;1252;49758;-63
2023/02/11 09:00:59;;;;;;;;;53.00;41.00;13.70;32.60;;;;;;110364;1248;45875;-61
2023/02/11 09:03:26;;;;;;;;;50.50;42.00;13.70;32.50;;;;;;110383;1248;55324;-60
2023/02/11 09:05:53;;;;;;;;;52.33;41.67;13.70;32.50;;;;;;110368;1252;54136;-62
2023/02/11 09:08:20;;;;;;;;;51.50;42.00;13.70;32.50;;;;;;110409;1250;49117;-64
2023/02/11 09:10:47;;;;;;;;;49.33;40.00;13.80;32.50;;;;;;110390;1252;49566;-61
2023/02/11 09:13:15;;;;;;;;;52.00;40.00;13.80;32.60;;;;;;110400;1248;46757;-61
2023/02/11 09:15:45;;;;;;;;;48.67;38.67;13.80;32.50;;;;;;110364;1248;56026;-61
2023/02/11 09:18:13;;;;;;;;;49.00;41.00;13.90;32.70;;;;;;110348;1248;54372;-61
2023/02/11 09:20:40;;;;;;;;;52.00;44.00;13.80;32.40;;;;;;110382;1248;49153;-61
2023/02/11 09:23:09;;;;;;;;;49.50;41.00;13.90;32.50;;;;;;110433;1252;50155;-59
2023/02/11 09:25:39;;;;;;;;;51.67;41.00;13.90;32.50;;;;;;110434;1252;45552;-59
2023/02/11 09:28:07;;;;;;;;;54.00;43.00;13.90;32.50;;;;;;110290;1249;56656;-60
2023/02/11 09:30:38;;;;;;;;;58.00;44.00;13.80;32.30;;;;;;110386;1252;53395;-59
2023/02/11 09:33:05;;;;;;;;;50.50;41.00;13.90;32.40;;;;;;110506;1250;49497;-60
2023/02/11 09:35:33;;;;;;;;;49.00;39.00;13.90;32.40;;;;;;110478;1248;49792;-61
2023/02/11 09:38:00;;;;;;;;;51.00;41.50;13.90;32.70;;;;;;110361;1248;46079;-60
2023/02/11 09:40:27;;;;;;;;;51.50;41.50;13.90;32.50;;;;;;110344;1252;55434;-60
2023/02/11 09:43:07;;;;;;;;;51.00;40.00;13.90;32.80;;;;;;110083;1251;54755;-60
2023/02/11 09:45:34;;;;;;;;;49.50;39.50;13.90;32.60;;;;;;110385;1252;50056;-60
2023/02/11 09:48:09;;;;;;;;;50.00;40.00;13.90;32.50;;;;;;110369;1252;49135;-60
2023/02/11 09:50:41;;;;;;;;;53.00;44.00;14.00;32.50;;;;;;110377;1252;46946;-60
2023/02/11 09:53:14;;;;;;;;;49.00;40.00;14.00;32.50;;;;;;110448;1252;55489;-59
2023/02/11 09:55:44;;;;;;;;;52.50;41.00;14.00;32.40;;;;;;110790;1247;54426;-60
2023/02/11 09:58:29;;;;;;;;;56.50;42.50;14.10;32.40;;;;;;110449;1248;49142;-59
2023/02/11 10:00:59;;;;;;;;;49.00;41.00;14.10;32.30;;;;;;110423;1252;49306;-60
2023/02/11 10:03:48;;;;;;;;;52.00;41.00;14.10;32.20;;;;;;110468;1249;46403;-59
2023/02/11 10:06:46;;;;;;;;;51.00;40.33;14.10;32.10;;;;;;110425;1252;56472;-60
2023/02/11 10:09:34;;;;;;;;;52.00;44.00;14.20;32.10;;;;;;110180;1250;54050;-59
2023/02/11 10:12:26;;;;;;;;;48.25;38.75;14.20;32.30;;;;;;110434;1252;49249;-61
2023/02/11 10:14:53;;;;;;;;;52.00;42.00;14.20;32.30;;;;;;110398;1247;48879;-60
2023/02/11 10:17:38;;;;;;;;;53.00;42.50;14.30;32.00;;;;;;110365;1247;45100;-60
2023/02/11 10:20:25;;;;;;;;;51.00;41.00;14.30;32.00;;;;;;110074;1253;57205;-59
2023/02/11 10:22:54;;;;;;;;;47.50;40.00;14.30;31.90;;;;;;110237;1253;53864;-61
2023/02/11 10:25:23;;;;;;;;;51.50;41.00;14.40;32.10;;;;;;110423;1248;50067;-60
2023/02/11 10:27:52;;;;;;;;;51.50;42.50;14.40;31.80;;;;;;110444;1252;49594;-59
2023/02/11 10:30:28;;;;;;;;;48.00;40.00;14.40;31.90;;;;;;110236;1252;45331;-60
2023/02/11 10:33:18;;;;;;;;;49.25;41.00;14.50;31.70;;;;;;110408;1248;55693;-60
2023/02/11 10:35:45;;;;;;;;;45.33;37.00;14.50;31.70;;;;;;110443;1248;54813;-60
2023/02/11 10:38:12;;;;;;;;;50.25;41.00;14.50;31.60;;;;;;110226;1248;50009;-60
2023/02/11 10:40:39;;;;;;;;;50.00;41.00;14.60;31.50;;;;;;110327;1252;49647;-60
2023/02/11 10:43:10;;;;;;;;;50.00;39.00;14.70;31.50;;;;;;110484;1252;46497;-60
2023/02/11 10:45:48;;;;;;;;;50.50;41.00;14.70;31.40;;;;;;110321;1253;56110;-60
2023/02/11 10:48:51;;;;;;;;;46.00;38.00;14.70;31.40;;;;;;110462;1252;53512;-60
2023/02/11 10:51:23;;;;;;;;;49.00;40.00;14.70;31.30;;;;;;109946;1253;50494;-60
2023/02/11 10:54:13;;;;;;;;;51.00;42.00;14.80;31.30;;;;;;110434;1248;49269;-61
2023/02/11 10:56:51;;;;;;;;;51.00;43.00;14.80;31.50;;;;;;110451;1252;46247;-61
2023/02/11 10:59:39;;;;;;;;;47.00;39.00;14.90;31.20;;;;;;110422;1252;55265;-61
2023/02/11 11:02:06;;;;;;;;;50.00;42.00;15.00;30.60;;;;;;110408;1252;54867;-62
2023/02/11 11:04:40;;;;;;;;;52.25;41.25;15.10;31.10;;;;;;110461;1252;50404;-60
2023/02/11 11:07:39;;;;;;;;;53.00;42.00;15.10;31.00;;;;;;110222;1252;49458;-60
2023/02/11 11:10:28;;;;;;;;;52.00;41.50;15.10;30.90;;;;;;109904;1252;45032;-60
2023/02/11 11:12:55;;;;;;;;;51.00;41.00;15.00;30.80;;;;;;110436;1250;55407;-60
2023/02/11 11:15:32;;;;;;;;;53.00;40.00;15.00;30.80;;;;;;110412;1252;54400;-61
2023/02/11 11:18:16;;;;;;;;;52.00;40.00;15.00;30.80;;;;;;110435;1252;49781;-60
2023/02/11 11:21:01;;;;;;;;;48.00;41.00;15.00;30.90;;;;;;110260;1253;49792;-60
2023/02/11 11:23:29;;;;;;;;;50.00;41.00;15.00;30.90;;;;;;110456;1248;45978;-59
2023/02/11 11:26:10;;;;;;;;;51.00;41.00;15.00;30.60;;;;;;110267;1247;56143;-61
2023/02/11 11:28:45;;;;;;;;;54.00;42.00;15.00;31.10;;;;;;110447;1252;54265;-59
2023/02/11 11:31:16;;;;;;;;;50.00;39.00;14.90;30.80;;;;;;110437;1252;49377;-60
2023/02/11 11:33:45;;;;;;;;;51.00;40.00;14.90;30.90;;;;;;110478;1252;49584;-60
2023/02/11 11:36:19;;;;;;;;;47.50;40.00;14.90;30.90;;;;;;110495;1252;45176;-60
2023/02/11 11:38:53;;;;;;;;;51.00;41.00;14.90;30.80;;;;;;110469;1248;56127;-59
2023/02/11 11:41:20;;;;;;;;;50.33;39.33;14.90;31.30;;;;;;110554;1248;53746;-58
2023/02/11 11:44:20;;;;;;;;;49.75;39.00;14.90;31.00;;;;;;110507;1247;49964;-59
2023/02/11 11:46:52;;;;;;;;;53.00;43.00;14.80;30.90;;;;;;110391;1247;49158;-61
2023/02/11 11:49:29;;;;;;;;;54.00;43.00;14.80;31.00;;;;;;110449;1252;46303;-60
2023/02/11 11:52:15;;;;;;;;;50.67;40.00;14.90;31.10;;;;;;110508;1248;55484;-60
2023/02/11 11:54:52;;;;;;;;;48.00;37.00;14.80;31.30;;;;;;110240;1253;54137;-61
2023/02/11 11:57:26;;;;;;;;;56.00;41.50;14.80;31.10;;;;;;110238;1252;49591;-59
2023/02/11 11:59:53;;;;;;;;;51.33;39.67;14.90;31.10;;;;;;110469;1252;50047;-61
2023/02/11 12:02:57;;;;;;;;;48.00;40.00;14.90;31.00;;;;;;110462;1252;45847;-59
2023/02/11 12:06:02;;;;;;;;;45.00;38.00;14.90;31.20;;;;;;110256;1248;55660;-62
2023/02/11 12:08:44;;;;;;;;;47.00;39.75;14.90;31.00;;;;;;110424;1252;54032;-62
2023/02/11 12:11:24;;;;;;;;;51.00;41.00;15.00;30.80;;;;;;110463;1252;49417;-60
2023/02/11 12:14:04;;;;;;;;;46.50;38.50;15.00;30.70;;;;;;110463;1248;49656;-61
2023/02/11 12:17:02;;;;;;;;;55.00;41.00;15.00;30.80;;;;;;110432;1248;46202;-61
2023/02/11 12:19:45;;;;;;;;;44.00;36.00;15.00;30.90;;;;;;110406;1249;55268;-61
2023/02/11 12:22:17;;;;;;;;;52.00;41.00;14.90;30.90;;;;;;110394;1247;54016;-59
2023/02/11 12:25:07;;;;;;;;;48.00;39.00;14.80;30.90;;;;;;110321;1252;49145;-62
2023/02/11 12:28:15;;;;;;;;;51.50;41.00;14.80;31.00;;;;;;110353;1248;49713;-61
2023/02/11 12:31:07;;;;;;;;;51.00;41.00;14.80;31.20;;;;;;110217;1252;45109;-62
2023/02/11 12:34:02;;;;;;;;;51.00;41.00;14.70;30.90;;;;;;110407;1248;55915;-60
2023/02/11 12:36:35;;;;;;;;;48.00;40.00;14.70;31.00;;;;;;110433;1248;53396;-60
2023/02/11 12:39:21;;;;;;;;;45.67;37.67;14.70;30.90;;;;;;110379;1248;50479;-60
2023/02/11 12:44:52;;;;;;;;;49.50;40.00;14.80;31.00;;;;;;110345;1247;45253;-59
2023/02/11 12:47:34;;;;;;;;;48.67;39.00;14.70;31.20;;;;;;110354;1252;55901;-59